Time;durP1;ratioP1;P1;durP2;ratioP2;P2;SDS_P1;SDS_P2;PMS_P1;PMS_P2;Temp;Humidity;BMP_temperature;BMP_pressure;BME280_temperature;BME280_humidity;BME280_pressure;Samples;Min_cycle;Max_cycle;Signal;HPM_P1;HPM_P2
2021/01/14 00:05:53;;;;;;;13.5;8.3;;;;;;;-1.18;88.97949;97476.81;;;;
2021/01/14 00:15:51;;;;;;;17.9;11.2;;;;;;;-1.15;88.97754;97474.45;;;;
2021/01/14 00:25:48;;;;;;;13.5;8.5;;;;;;;-1.13;89.0459;97455.67;;;;
2021/01/14 00:35:46;;;;;;;9;7;;;;;;;-1.15;89.04395;97434.8;;;;
2021/01/14 00:45:43;;;;;;;12.5;8.7;;;;;;;-1.27;89.85938;97449.27;;;;
2021/01/14 00:55:41;;;;;;;12.4;7.1;;;;;;;-1.24;89.78809;97427.61;;;;
2021/01/14 01:05:39;;;;;;;11.1;5.8;;;;;;;-1.28;89.49707;97424.69;;;;
2021/01/14 01:15:37;;;;;;;17.1;6.7;;;;;;;-1.4;89.42871;97413.56;;;;
2021/01/14 01:25:39;;;;;;;8.2;5;;;;;;;-1.37;89.07129;97409.6;;;;
2021/01/14 01:35:32;;;;;;;6.9;5.6;;;;;;;-1.36;88.7998;97395.34;;;;
2021/01/14 01:45:29;;;;;;;10;6.4;;;;;;;-1.48;88.4502;97377.06;;;;
2021/01/14 01:55:27;;;;;;;9.9;5.6;;;;;;;-1.55;88.58594;97376.52;;;;
2021/01/14 02:05:25;;;;;;;11.3;6.3;;;;;;;-1.42;88.74512;97377.9;;;;
2021/01/14 02:15:22;;;;;;;13.5;6.4;;;;;;;-1.34;88.77246;97382.66;;;;
2021/01/14 02:25:20;;;;;;;11.5;7.5;;;;;;;-1.28;88.80762;97374.48;;;;
2021/01/14 02:35:18;;;;;;;10.6;6.3;;;;;;;-1.16;88.43848;97385.62;;;;
2021/01/14 02:45:15;;;;;;;11.5;6.6;;;;;;;-1.27;88.62402;97376.07;;;;
2021/01/14 02:55:13;;;;;;;8.1;5.8;;;;;;;-1.28;88.9043;97365.75;;;;
2021/01/14 03:05:10;;;;;;;9.1;5.3;;;;;;;-1.17;88.73145;97372.65;;;;
2021/01/14 06:44:19;;;;;;;22.8;20.3;;;;;;;-1.01;89.3252;97441.15;;;;
2021/01/14 06:54:17;;;;;;;36;23.6;;;;;;;-0.99;89.21777;97459.41;;;;
2021/01/14 07:04:14;;;;;;;15;12.9;;;;;;;-1.07;89.23535;97473.92;;;;
2021/01/14 07:14:12;;;;;;;17.2;13;;;;;;;-1.03;89.16602;97495.35;;;;
2021/01/14 07:24:10;;;;;;;18.1;14.6;;;;;;;-0.9;89.20508;97500.14;;;;
2021/01/14 07:34:18;;;;;;;19.9;16;;;;;;;-0.79;88.4834;97522.93;;;;
2021/01/14 07:44:05;;;;;;;24.8;18.2;;;;;;;-0.57;88.24316;97520.08;;;;
2021/01/14 07:54:10;;;;;;;20.9;16.2;;;;;;;-0.37;86.75098;97530.69;;;;
2021/01/14 08:04:00;;;;;;;25.9;18.1;;;;;;;-0.26;86.65234;97548.18;;;;
2021/01/14 08:13:58;;;;;;;22;15.5;;;;;;;-0.15;86.20215;97570.17;;;;
2021/01/14 08:23:56;;;;;;;19.5;15.1;;;;;;;-0.1;85.46484;97586.05;;;;
2021/01/14 08:33:53;;;;;;;20.5;18.3;;;;;;;-0.09;85.19531;97593.73;;;;
2021/01/14 08:43:51;;;;;;;19;16.8;;;;;;;0.15;85.06641;97615.21;;;;
2021/01/14 08:53:49;;;;;;;27.2;18;;;;;;;0.18;84.42383;97633.23;;;;
2021/01/14 09:03:47;;;;;;;28.7;19.6;;;;;;;0.22;83.9707;97644.89;;;;
2021/01/14 09:13:44;;;;;;;26.8;22.4;;;;;;;0.04;86.0332;97666.58;;;;
2021/01/14 09:23:42;;;;;;;20.3;15.9;;;;;;;0.07;85.03711;97670.58;;;;
2021/01/14 09:33:40;;;;;;;21.4;18.4;;;;;;;0.08;85.20605;97686.2;;;;
2021/01/14 09:43:38;;;;;;;27.7;19.6;;;;;;;-0.03;89.37598;97698.62;;;;
2021/01/14 09:53:35;;;;;;;27.5;16;;;;;;;0.18;86.26855;97706.61;;;;
2021/01/14 10:03:33;;;;;;;16.2;14.5;;;;;;;0.26;85.21973;97714.85;;;;
2021/01/14 10:13:31;;;;;;;28.3;25.3;;;;;;;0.05;85.1875;97733.6;;;;
2021/01/14 10:23:29;;;;;;;23.7;17.3;;;;;;;0.05;85.94531;97733.6;;;;
2021/01/14 10:33:26;;;;;;;21;17;;;;;;;0.17;85.61719;97747.42;;;;
2021/01/14 10:43:24;;;;;;;19.8;13.5;;;;;;;-0.13;86.10645;97758.7;;;;
2021/01/14 10:53:22;;;;;;;22.6;16.8;;;;;;;-0.13;86.84375;97775.38;;;;
2021/01/14 11:03:20;;;;;;;27.3;19.1;;;;;;;0.23;85.58789;97773.67;;;;
2021/01/14 11:13:17;;;;;;;24.7;16.3;;;;;;;0.31;85.12012;97788.27;;;;
2021/01/14 11:23:15;;;;;;;24.6;19.9;;;;;;;0.04;85.75684;97792.92;;;;
2021/01/14 11:33:13;;;;;;;26.7;16.2;;;;;;;0.14;85.67969;97799.05;;;;
2021/01/14 11:43:11;;;;;;;30.2;20.6;;;;;;;0.35;85.09375;97797.27;;;;
2021/01/14 11:53:09;;;;;;;28.6;20.1;;;;;;;0.47;84.44824;97813.75;;;;
2021/01/14 12:03:07;;;;;;;29;19.4;;;;;;;0.15;84.87793;97829;;;;
2021/01/14 12:13:06;;;;;;;30.5;22.6;;;;;;;-0.13;86.04297;97838.94;;;;
2021/01/14 12:23:02;;;;;;;18.9;15.8;;;;;;;-0.09;86.3584;97855.91;;;;
2021/01/14 12:33:00;;;;;;;29.4;19.8;;;;;;;-0.07;86.36035;97876.86;;;;
2021/01/14 12:42:57;;;;;;;21.8;15.8;;;;;;;-0.21;87.7793;97894.25;;;;
2021/01/14 12:52:55;;;;;;;21.5;11.6;;;;;;;-0.16;85.86035;97920.74;;;;
2021/01/14 13:02:53;;;;;;;17.5;13.4;;;;;;;0.38;85.28613;97926.64;;;;
2021/01/14 13:12:50;;;;;;;18;14.4;;;;;;;0.44;80.84668;97939.66;;;;
2021/01/14 13:22:48;;;;;;;22.7;14.6;;;;;;;0.26;81.31738;97969.23;;;;
2021/01/14 13:32:46;;;;;;;21.3;14.8;;;;;;;0.28;81.5752;97988.31;;;;
2021/01/14 13:42:43;;;;;;;23.1;16;;;;;;;0.31;81.11816;98016.95;;;;
2021/01/14 13:52:41;;;;;;;16.9;11.7;;;;;;;0.13;78.69531;98027.17;;;;
2021/01/14 14:02:39;;;;;;;12.6;8.6;;;;;;;-0.21;77.30176;98051.23;;;;
2021/01/14 14:12:36;;;;;;;15.5;8.6;;;;;;;-0.19;76.27246;98053.66;;;;
2021/01/14 14:22:38;;;;;;;16.1;12.6;;;;;;;-0.28;78.1582;98084.3;;;;
2021/01/14 14:32:32;;;;;;;23;14.3;;;;;;;-0.55;79.2627;98108.07;;;;
2021/01/14 14:42:29;;;;;;;16.5;10.4;;;;;;;-0.77;79.24414;98109.94;;;;
2021/01/14 14:52:27;;;;;;;12;8.3;;;;;;;-0.81;79.58789;98122.05;;;;
2021/01/14 15:02:25;;;;;;;16.4;11.5;;;;;;;-0.85;79.86426;98131.52;;;;
2021/01/14 15:12:23;;;;;;;23.1;18;;;;;;;-1.04;80.07031;98133.64;;;;
2021/01/14 15:22:20;;;;;;;29.2;16.9;;;;;;;-1.16;81.18945;98157.56;;;;
2021/01/14 15:32:17;;;;;;;23.6;15.5;;;;;;;-1.2;81.32324;98163.56;;;;
2021/01/14 15:42:15;;;;;;;30.3;21.3;;;;;;;-1.33;81.41992;98182.41;;;;
2021/01/14 15:52:12;;;;;;;38.9;19.3;;;;;;;-1.38;82.48438;98191.05;;;;
2021/01/14 16:02:10;;;;;;;27.3;19.6;;;;;;;-1.42;83.15527;98208.42;;;;
2021/01/14 16:12:09;;;;;;;34.1;18.2;;;;;;;-1.44;83.87402;98218.44;;;;
2021/01/14 16:22:06;;;;;;;25.2;17.1;;;;;;;-1.44;83.85059;98238.77;;;;
2021/01/14 16:32:02;;;;;;;30.6;19.2;;;;;;;-1.5;84.40918;98243.19;;;;
2021/01/14 16:42:00;;;;;;;28.3;19.9;;;;;;;-1.54;84.77246;98260.55;;;;
2021/01/14 16:51:58;;;;;;;32.7;21.1;;;;;;;-1.54;84.93555;98281.69;;;;
2021/01/14 17:01:56;;;;;;;52.2;26.3;;;;;;;-1.57;85.62207;98280.33;;;;
2021/01/14 17:11:52;;;;;;;40.1;26.1;;;;;;;-1.58;86.1543;98294.56;;;;
2021/01/14 17:21:50;;;;;;;33.9;25;;;;;;;-1.61;86.30176;98297.69;;;;
2021/01/14 17:31:47;;;;;;;32.9;23.6;;;;;;;-1.64;86.35938;98294.72;;;;
2021/01/14 17:41:45;;;;;;;42.3;27.2;;;;;;;-1.67;86.29102;98309.2;;;;
2021/01/14 17:51:42;;;;;;;41.6;24.1;;;;;;;-1.75;86.45801;98311.41;;;;
2021/01/14 18:01:40;;;;;;;35.4;24.1;;;;;;;-1.78;86.39844;98310.05;;;;
2021/01/14 18:11:37;;;;;;;37;25;;;;;;;-1.77;86.44336;98324.05;;;;
2021/01/14 18:21:35;;;;;;;44.6;26.2;;;;;;;-1.84;86.85547;98323.39;;;;
2021/01/14 18:31:32;;;;;;;37.6;26.5;;;;;;;-1.83;87.29395;98332.89;;;;
2021/01/14 18:41:30;;;;;;;67.1;53.9;;;;;;;-1.81;87.06836;98333.48;;;;
2021/01/14 18:51:27;;;;;;;51.7;28.5;;;;;;;-1.89;87.3252;98341.76;;;;
2021/01/14 19:01:25;;;;;;;48.1;35.8;;;;;;;-1.94;87.52148;98344.31;;;;
2021/01/14 19:11:22;;;;;;;37.7;28.3;;;;;;;-1.98;87.85449;98354.53;;;;
2021/01/14 19:21:20;;;;;;;41.3;30.4;;;;;;;-2.02;88.05078;98344.66;;;;
2021/01/14 19:31:17;;;;;;;62.8;33.7;;;;;;;-1.95;88.16406;98345.34;;;;
2021/01/14 19:41:15;;;;;;;50.8;33.2;;;;;;;-1.96;88.09863;98357.73;;;;
2021/01/14 19:51:12;;;;;;;58.8;39.4;;;;;;;-2.03;88.14941;98367.62;;;;
2021/01/14 20:01:10;;;;;;;61.5;34.4;;;;;;;-2;88.39551;98369.79;;;;
2021/01/14 20:11:07;;;;;;;49.6;33.6;;;;;;;-2.08;88.5;98376.22;;;;
2021/01/14 20:21:08;;;;;;;49.8;33.5;;;;;;;-2.08;88.43457;98384.14;;;;
2021/01/14 20:31:02;;;;;;;55.6;34.1;;;;;;;-2.01;88.27148;98385.88;;;;
2021/01/14 20:40:59;;;;;;;48.7;33.9;;;;;;;-2;88.51465;98392.75;;;;
2021/01/14 20:50:57;;;;;;;46.4;33.8;;;;;;;-1.96;88.4043;98394.7;;;;
2021/01/14 21:00:55;;;;;;;46.9;29.2;;;;;;;-1.94;88.33008;98405.05;;;;
2021/01/14 21:10:52;;;;;;;44.3;27;;;;;;;-1.9;87.89355;98401.69;;;;
2021/01/14 21:20:49;;;;;;;35.5;24.4;;;;;;;-1.84;88.31934;98399.98;;;;
2021/01/14 21:30:47;;;;;;;39.6;27.4;;;;;;;-1.92;88.30273;98418.81;;;;
2021/01/14 21:40:44;;;;;;;36;24.3;;;;;;;-1.87;88.30273;98414.42;;;;
2021/01/14 21:50:42;;;;;;;20.8;12.9;;;;;;;-1.96;84.02148;98415.02;;;;
2021/01/14 22:00:39;;;;;;;17.1;11.4;;;;;;;-2.11;81.87207;98412.84;;;;
2021/01/14 22:10:37;;;;;;;24.2;15.7;;;;;;;-2.26;82.16016;98415.16;;;;
2021/01/14 22:20:34;;;;;;;16.8;11.9;;;;;;;-2.3;82.05469;98428.01;;;;
2021/01/14 22:30:32;;;;;;;19.3;10.8;;;;;;;-2.35;81.83691;98443.7;;;;
2021/01/14 22:40:29;;;;;;;20.8;11.7;;;;;;;-2.36;82.0625;98451.88;;;;
2021/01/14 22:50:26;;;;;;;22.5;13.8;;;;;;;-2.45;82.55957;98437.38;;;;
2021/01/14 23:00:24;;;;;;;19.8;13.4;;;;;;;-2.51;82.8877;98428.55;;;;
2021/01/14 23:10:21;;;;;;;26.1;17.3;;;;;;;-2.58;82.94043;98447.13;;;;
2021/01/14 23:20:19;;;;;;;21;12.7;;;;;;;-2.59;82.70996;98458.7;;;;
2021/01/14 23:30:16;;;;;;;24.8;15.6;;;;;;;-2.61;82.80469;98458.13;;;;
2021/01/14 23:40:13;;;;;;;16.7;12.7;;;;;;;-2.63;83.65039;98469.92;;;;
2021/01/14 23:50:11;;;;;;;21.6;13.4;;;;;;;-2.59;83.70313;98485.08;;;;
